Saint Clair, MN (56080)

7:08 AM CDT on October 31, 2014 (GMT -0500)
North East Blue Earth County, Minnesota | Change Station
CLOSE
Current Station
Personal Weather Station
Location: Eagle Lake, MN
Elevation: 1010 ft
Nearby Weather Stations

Elev 1010 ft 44.17 °N, 93.84 °W | Updated 7 minutes ago

Clear
Clear
25.4 °F
Feels Like 17 °F
N
8.0
Wind Variable Wind from NNW
Gusts 12.0 mph

Today
High -- | Low -- °F
--% Chance of Precip.
Yesterday
High -- | Low -- °F
Precip. -- in
7:50 AM 6:06 PM
First Quarter, 54% visible
Pressure 30.49 in
Visibility 10.0 miles
Clouds Clear
Windchill 17 °F
Dew Point 19 °F
Humidity 76%
Rainfall 0.00 in
Snow Depth Not available.
UV 0 out of 12
Pollen .10 out of 12
Air Quality Not available.
Flu Activity Not available.
METAR KMKT 311155Z AUTO 32007KT 10SM CLR M05/M11 A3049 RMK AO1 10000 21050 52014

More Conditions Fewer Conditions

Pressure 30.49 in
Visibility 10.0 miles
Clouds Clear
Windchill 17 °F
Dew Point 19 °F
Humidity 76%
Rainfall 0.00 in
Snow Depth Not available.
UV 0 out of 12
Pollen .10 out of 12
Air Quality Not available.
Flu Activity Not available.
METAR KMKT 311155Z AUTO 32007KT 10SM CLR M05/M11 A3049 RMK AO1 10000 21050 52014

More Conditions Fewer Conditions

10-Day Weather Forecast

Almanac

Astronomy

Oct. 31, 2014 Rise Set
Actual Time
Civil Twilight
Nautical Twilight
Astronomical Twilight
Moon
Length of Visible Light
Length of Day
Tomorrow will be .
, % of the Moon is Illuminated

Today's Extremes

State Highs State Lows

Community

WunderPhotos

Upload Photos

1,766,589 photos uploaded!

WunderBlogs® & News

Nearby

Air Quality

  Air Quality AQ Index Pollutant
Not available.

Snow Depth

Station Depth Elevation

Earthquake Activity

City Distance Mag. Time & Date
Minimum magnitude displayed is 2.5.

Coastal Water Temperatures

Place Temperature

Nearby Weather Stations